sensor_id;sensor_type;location;lat;lon;timestamp;P1;durP1;ratioP1;P2;durP2;ratioP2
313;SDS011;143;51.634;7.112;2022-11-18T00:00:18;7.27;;;3.20;;
313;SDS011;143;51.634;7.112;2022-11-18T00:02:44;11.73;;;3.43;;
313;SDS011;143;51.634;7.112;2022-11-18T00:05:09;8.40;;;4.10;;
313;SDS011;143;51.634;7.112;2022-11-18T00:07:35;11.90;;;3.10;;
313;SDS011;143;51.634;7.112;2022-11-18T00:10:01;10.10;;;3.30;;
313;SDS011;143;51.634;7.112;2022-11-18T00:12:26;5.43;;;2.93;;
313;SDS011;143;51.634;7.112;2022-11-18T00:15:11;5.10;;;3.17;;
313;SDS011;143;51.634;7.112;2022-11-18T00:17:36;9.90;;;3.40;;
313;SDS011;143;51.634;7.112;2022-11-18T00:20:02;7.67;;;3.10;;
313;SDS011;143;51.634;7.112;2022-11-18T00:22:28;6.60;;;2.77;;
313;SDS011;143;51.634;7.112;2022-11-18T00:24:54;6.10;;;2.37;;
313;SDS011;143;51.634;7.112;2022-11-18T00:27:19;11.00;;;3.00;;
313;SDS011;143;51.634;7.112;2022-11-18T00:29:45;9.07;;;3.57;;
313;SDS011;143;51.634;7.112;2022-11-18T00:32:11;6.13;;;2.53;;
313;SDS011;143;51.634;7.112;2022-11-18T00:34:36;5.93;;;2.40;;
313;SDS011;143;51.634;7.112;2022-11-18T00:37:02;7.13;;;2.70;;
313;SDS011;143;51.634;7.112;2022-11-18T00:39:28;10.50;;;3.03;;
313;SDS011;143;51.634;7.112;2022-11-18T00:41:53;7.90;;;3.00;;
313;SDS011;143;51.634;7.112;2022-11-18T00:44:38;5.90;;;2.50;;
313;SDS011;143;51.634;7.112;2022-11-18T00:47:04;9.47;;;2.70;;
313;SDS011;143;51.634;7.112;2022-11-18T00:49:30;8.27;;;2.20;;
313;SDS011;143;51.634;7.112;2022-11-18T00:51:55;8.40;;;2.80;;
313;SDS011;143;51.634;7.112;2022-11-18T00:54:21;4.80;;;2.53;;
313;SDS011;143;51.634;7.112;2022-11-18T00:56:47;6.87;;;2.60;;
313;SDS011;143;51.634;7.112;2022-11-18T00:59:13;10.67;;;2.70;;
313;SDS011;143;51.634;7.112;2022-11-18T01:01:38;8.23;;;3.07;;
313;SDS011;143;51.634;7.112;2022-11-18T01:04:04;6.83;;;2.30;;
313;SDS011;143;51.634;7.112;2022-11-18T01:06:30;10.93;;;2.83;;
313;SDS011;143;51.634;7.112;2022-11-18T01:08:56;6.17;;;2.77;;
313;SDS011;143;51.634;7.112;2022-11-18T01:11:21;6.73;;;2.90;;
313;SDS011;143;51.634;7.112;2022-11-18T01:14:05;6.77;;;2.93;;
313;SDS011;143;51.634;7.112;2022-11-18T01:16:31;5.17;;;2.50;;
313;SDS011;143;51.634;7.112;2022-11-18T01:18:57;7.83;;;2.77;;
313;SDS011;143;51.634;7.112;2022-11-18T01:21:22;8.43;;;2.57;;
313;SDS011;143;51.634;7.112;2022-11-18T01:23:48;12.40;;;2.63;;
313;SDS011;143;51.634;7.112;2022-11-18T01:26:14;5.90;;;3.03;;
313;SDS011;143;51.634;7.112;2022-11-18T01:28:41;6.30;;;2.57;;
313;SDS011;143;51.634;7.112;2022-11-18T01:31:17;9.40;;;2.80;;
313;SDS011;143;51.634;7.112;2022-11-18T01:33:44;5.83;;;2.80;;
313;SDS011;143;51.634;7.112;2022-11-18T01:36:14;11.50;;;3.27;;
313;SDS011;143;51.634;7.112;2022-11-18T01:38:47;8.60;;;3.07;;
313;SDS011;143;51.634;7.112;2022-11-18T01:41:13;8.03;;;2.63;;
313;SDS011;143;51.634;7.112;2022-11-18T01:46:20;9.53;;;3.23;;
313;SDS011;143;51.634;7.112;2022-11-18T01:48:48;8.20;;;2.90;;
313;SDS011;143;51.634;7.112;2022-11-18T01:51:18;10.90;;;2.63;;
313;SDS011;143;51.634;7.112;2022-11-18T01:53:50;8.60;;;3.10;;
313;SDS011;143;51.634;7.112;2022-11-18T01:56:40;9.60;;;2.87;;
313;SDS011;143;51.634;7.112;2022-11-18T01:59:12;8.70;;;4.30;;
313;SDS011;143;51.634;7.112;2022-11-18T02:01:42;10.20;;;2.60;;
313;SDS011;143;51.634;7.112;2022-11-18T02:04:08;5.17;;;2.57;;
313;SDS011;143;51.634;7.112;2022-11-18T02:06:35;12.20;;;2.63;;
313;SDS011;143;51.634;7.112;2022-11-18T02:09:02;6.83;;;2.67;;
313;SDS011;143;51.634;7.112;2022-11-18T02:11:28;4.87;;;2.70;;
313;SDS011;143;51.634;7.112;2022-11-18T02:14:14;7.60;;;2.40;;
313;SDS011;143;51.634;7.112;2022-11-18T02:28:34;3.43;;;2.33;;
313;SDS011;143;51.634;7.112;2022-11-18T02:31:21;6.37;;;2.80;;
313;SDS011;143;51.634;7.112;2022-11-18T02:33:59;10.93;;;2.50;;
313;SDS011;143;51.634;7.112;2022-11-18T02:39:37;9.20;;;2.73;;
313;SDS011;143;51.634;7.112;2022-11-18T02:42:08;6.57;;;2.47;;
313;SDS011;143;51.634;7.112;2022-11-18T02:44:37;10.10;;;2.30;;
313;SDS011;143;51.634;7.112;2022-11-18T02:47:06;4.97;;;2.43;;
313;SDS011;143;51.634;7.112;2022-11-18T02:49:42;10.20;;;3.43;;
313;SDS011;143;51.634;7.112;2022-11-18T02:52:11;18.77;;;3.50;;
313;SDS011;143;51.634;7.112;2022-11-18T02:54:40;8.87;;;3.20;;
313;SDS011;143;51.634;7.112;2022-11-18T02:57:08;7.43;;;3.07;;
313;SDS011;143;51.634;7.112;2022-11-18T02:59:34;5.40;;;3.00;;
313;SDS011;143;51.634;7.112;2022-11-18T03:02:01;11.73;;;2.77;;
313;SDS011;143;51.634;7.112;2022-11-18T03:04:27;9.47;;;3.43;;
313;SDS011;143;51.634;7.112;2022-11-18T03:07:09;5.83;;;2.57;;
313;SDS011;143;51.634;7.112;2022-11-18T03:09:39;10.50;;;2.70;;
313;SDS011;143;51.634;7.112;2022-11-18T03:12:10;10.23;;;3.40;;
313;SDS011;143;51.634;7.112;2022-11-18T03:23:31;10.17;;;2.97;;
313;SDS011;143;51.634;7.112;2022-11-18T03:26:10;5.87;;;3.80;;
313;SDS011;143;51.634;7.112;2022-11-18T03:28:45;5.93;;;2.80;;
313;SDS011;143;51.634;7.112;2022-11-18T03:31:52;7.00;;;2.97;;
313;SDS011;143;51.634;7.112;2022-11-18T03:34:12;8.93;;;3.57;;
313;SDS011;143;51.634;7.112;2022-11-18T03:36:53;6.27;;;3.20;;
313;SDS011;143;51.634;7.112;2022-11-18T03:39:21;9.73;;;3.60;;
313;SDS011;143;51.634;7.112;2022-11-18T03:42:10;6.90;;;3.30;;
313;SDS011;143;51.634;7.112;2022-11-18T03:44:37;6.83;;;3.63;;
313;SDS011;143;51.634;7.112;2022-11-18T03:47:08;6.47;;;3.10;;
313;SDS011;143;51.634;7.112;2022-11-18T03:49:45;7.20;;;3.70;;
313;SDS011;143;51.634;7.112;2022-11-18T03:52:24;6.83;;;3.40;;
313;SDS011;143;51.634;7.112;2022-11-18T03:54:53;6.60;;;2.90;;
313;SDS011;143;51.634;7.112;2022-11-18T03:57:40;6.57;;;3.20;;
313;SDS011;143;51.634;7.112;2022-11-18T04:00:13;8.50;;;2.83;;
313;SDS011;143;51.634;7.112;2022-11-18T04:02:40;4.33;;;1.90;;
313;SDS011;143;51.634;7.112;2022-11-18T04:05:08;3.10;;;1.67;;
313;SDS011;143;51.634;7.112;2022-11-18T04:07:41;4.60;;;2.40;;
313;SDS011;143;51.634;7.112;2022-11-18T04:10:28;7.87;;;2.10;;
313;SDS011;143;51.634;7.112;2022-11-18T04:13:04;47.83;;;2.70;;
313;SDS011;143;51.634;7.112;2022-11-18T04:15:32;4.87;;;2.40;;
313;SDS011;143;51.634;7.112;2022-11-18T04:18:01;8.70;;;2.80;;
313;SDS011;143;51.634;7.112;2022-11-18T04:20:27;6.90;;;2.53;;
313;SDS011;143;51.634;7.112;2022-11-18T04:22:53;11.20;;;2.63;;
313;SDS011;143;51.634;7.112;2022-11-18T04:25:19;6.53;;;3.53;;
313;SDS011;143;51.634;7.112;2022-11-18T04:27:44;8.57;;;3.07;;
313;SDS011;143;51.634;7.112;2022-11-18T04:30:10;14.90;;;3.97;;
313;SDS011;143;51.634;7.112;2022-11-18T04:32:36;8.10;;;2.87;;
313;SDS011;143;51.634;7.112;2022-11-18T04:35:02;6.17;;;3.33;;
313;SDS011;143;51.634;7.112;2022-11-18T04:37:28;11.97;;;3.93;;
313;SDS011;143;51.634;7.112;2022-11-18T04:39:53;12.17;;;3.80;;
313;SDS011;143;51.634;7.112;2022-11-18T04:42:19;8.93;;;3.30;;
313;SDS011;143;51.634;7.112;2022-11-18T04:44:45;7.23;;;2.83;;
313;SDS011;143;51.634;7.112;2022-11-18T04:47:10;8.17;;;2.40;;
313;SDS011;143;51.634;7.112;2022-11-18T04:49:36;8.80;;;2.87;;
313;SDS011;143;51.634;7.112;2022-11-18T04:52:02;5.60;;;2.80;;
313;SDS011;143;51.634;7.112;2022-11-18T04:54:28;8.10;;;2.80;;
313;SDS011;143;51.634;7.112;2022-11-18T04:56:54;7.23;;;2.43;;
313;SDS011;143;51.634;7.112;2022-11-18T04:59:22;3.10;;;2.03;;
313;SDS011;143;51.634;7.112;2022-11-18T05:01:52;3.00;;;1.90;;
313;SDS011;143;51.634;7.112;2022-11-18T05:04:20;5.07;;;2.03;;
313;SDS011;143;51.634;7.112;2022-11-18T05:06:48;4.00;;;1.93;;
313;SDS011;143;51.634;7.112;2022-11-18T05:09:14;4.67;;;2.37;;
313;SDS011;143;51.634;7.112;2022-11-18T05:11:41;8.57;;;3.00;;
313;SDS011;143;51.634;7.112;2022-11-18T05:14:26;9.30;;;3.10;;
313;SDS011;143;51.634;7.112;2022-11-18T05:16:53;12.87;;;2.83;;
313;SDS011;143;51.634;7.112;2022-11-18T05:19:20;8.40;;;3.00;;
313;SDS011;143;51.634;7.112;2022-11-18T05:21:45;5.80;;;2.73;;
313;SDS011;143;51.634;7.112;2022-11-18T05:24:11;7.87;;;2.97;;
313;SDS011;143;51.634;7.112;2022-11-18T05:26:37;6.37;;;3.37;;
313;SDS011;143;51.634;7.112;2022-11-18T05:29:03;12.60;;;3.53;;
313;SDS011;143;51.634;7.112;2022-11-18T05:31:29;19.97;;;3.77;;
313;SDS011;143;51.634;7.112;2022-11-18T05:33:55;9.53;;;3.60;;
313;SDS011;143;51.634;7.112;2022-11-18T05:36:21;14.30;;;4.00;;
313;SDS011;143;51.634;7.112;2022-11-18T05:38:47;24.07;;;4.93;;
313;SDS011;143;51.634;7.112;2022-11-18T05:41:15;10.57;;;4.00;;
313;SDS011;143;51.634;7.112;2022-11-18T05:44:02;15.57;;;5.47;;
313;SDS011;143;51.634;7.112;2022-11-18T05:46:34;8.80;;;4.27;;
313;SDS011;143;51.634;7.112;2022-11-18T05:49:00;9.40;;;3.60;;
313;SDS011;143;51.634;7.112;2022-11-18T05:51:26;14.33;;;4.33;;
313;SDS011;143;51.634;7.112;2022-11-18T05:53:53;14.33;;;4.80;;
313;SDS011;143;51.634;7.112;2022-11-18T05:58:58;12.73;;;5.30;;
313;SDS011;143;51.634;7.112;2022-11-18T06:01:29;12.53;;;4.90;;
313;SDS011;143;51.634;7.112;2022-11-18T06:04:01;14.50;;;5.40;;
313;SDS011;143;51.634;7.112;2022-11-18T06:06:33;9.97;;;4.20;;
313;SDS011;143;51.634;7.112;2022-11-18T06:09:04;10.00;;;4.43;;
313;SDS011;143;51.634;7.112;2022-11-18T06:11:32;10.13;;;5.13;;
313;SDS011;143;51.634;7.112;2022-11-18T06:14:06;14.17;;;4.77;;
313;SDS011;143;51.634;7.112;2022-11-18T06:16:39;16.57;;;5.23;;
313;SDS011;143;51.634;7.112;2022-11-18T06:19:10;15.40;;;6.13;;
313;SDS011;143;51.634;7.112;2022-11-18T06:21:36;11.27;;;5.30;;
313;SDS011;143;51.634;7.112;2022-11-18T06:24:02;13.57;;;6.10;;
313;SDS011;143;51.634;7.112;2022-11-18T06:26:29;9.90;;;5.63;;
313;SDS011;143;51.634;7.112;2022-11-18T06:28:56;10.23;;;4.97;;
313;SDS011;143;51.634;7.112;2022-11-18T06:31:23;8.60;;;5.60;;
313;SDS011;143;51.634;7.112;2022-11-18T06:33:49;17.83;;;5.80;;
313;SDS011;143;51.634;7.112;2022-11-18T06:36:15;17.73;;;5.83;;
313;SDS011;143;51.634;7.112;2022-11-18T06:38:41;14.20;;;6.50;;
313;SDS011;143;51.634;7.112;2022-11-18T06:41:07;11.23;;;5.07;;
313;SDS011;143;51.634;7.112;2022-11-18T06:43:33;11.57;;;5.37;;
313;SDS011;143;51.634;7.112;2022-11-18T06:46:11;11.20;;;5.50;;
313;SDS011;143;51.634;7.112;2022-11-18T06:48:56;10.17;;;5.40;;
313;SDS011;143;51.634;7.112;2022-11-18T06:51:23;19.80;;;6.40;;
313;SDS011;143;51.634;7.112;2022-11-18T06:53:51;10.40;;;5.00;;
313;SDS011;143;51.634;7.112;2022-11-18T06:56:17;13.03;;;5.50;;
313;SDS011;143;51.634;7.112;2022-11-18T06:58:44;13.97;;;5.40;;
313;SDS011;143;51.634;7.112;2022-11-18T07:01:14;7.23;;;4.50;;
313;SDS011;143;51.634;7.112;2022-11-18T07:03:44;17.03;;;5.27;;
313;SDS011;143;51.634;7.112;2022-11-18T07:06:11;17.03;;;5.50;;
313;SDS011;143;51.634;7.112;2022-11-18T07:08:39;10.33;;;5.33;;
313;SDS011;143;51.634;7.112;2022-11-18T07:11:07;13.33;;;5.13;;
313;SDS011;143;51.634;7.112;2022-11-18T07:13:34;17.33;;;4.90;;
313;SDS011;143;51.634;7.112;2022-11-18T07:16:03;14.70;;;5.70;;
313;SDS011;143;51.634;7.112;2022-11-18T07:18:33;17.30;;;4.70;;
313;SDS011;143;51.634;7.112;2022-11-18T07:21:05;15.70;;;5.30;;
313;SDS011;143;51.634;7.112;2022-11-18T07:23:35;11.67;;;5.23;;
313;SDS011;143;51.634;7.112;2022-11-18T07:26:02;9.40;;;5.13;;
313;SDS011;143;51.634;7.112;2022-11-18T07:28:30;14.43;;;5.87;;
313;SDS011;143;51.634;7.112;2022-11-18T07:31:10;10.67;;;4.70;;
313;SDS011;143;51.634;7.112;2022-11-18T07:33:38;9.77;;;5.10;;
313;SDS011;143;51.634;7.112;2022-11-18T07:36:09;13.30;;;5.50;;
313;SDS011;143;51.634;7.112;2022-11-18T07:38:39;13.17;;;4.87;;
313;SDS011;143;51.634;7.112;2022-11-18T07:41:20;8.80;;;4.53;;
313;SDS011;143;51.634;7.112;2022-11-18T07:43:50;14.07;;;4.77;;
313;SDS011;143;51.634;7.112;2022-11-18T07:46:26;14.27;;;4.90;;
313;SDS011;143;51.634;7.112;2022-11-18T07:48:54;10.40;;;4.83;;
313;SDS011;143;51.634;7.112;2022-11-18T07:51:22;15.90;;;5.87;;
313;SDS011;143;51.634;7.112;2022-11-18T07:53:49;9.63;;;5.07;;
313;SDS011;143;51.634;7.112;2022-11-18T07:56:15;9.73;;;4.80;;
313;SDS011;143;51.634;7.112;2022-11-18T07:58:42;15.60;;;5.77;;
313;SDS011;143;51.634;7.112;2022-11-18T08:01:09;12.23;;;5.20;;
313;SDS011;143;51.634;7.112;2022-11-18T08:03:37;13.00;;;5.30;;
313;SDS011;143;51.634;7.112;2022-11-18T08:06:03;16.10;;;5.30;;
313;SDS011;143;51.634;7.112;2022-11-18T08:08:31;10.83;;;5.17;;
313;SDS011;143;51.634;7.112;2022-11-18T08:10:57;10.63;;;4.50;;
313;SDS011;143;51.634;7.112;2022-11-18T08:13:24;12.13;;;5.40;;
313;SDS011;143;51.634;7.112;2022-11-18T08:15:51;14.73;;;6.00;;
313;SDS011;143;51.634;7.112;2022-11-18T08:18:18;11.00;;;4.90;;
313;SDS011;143;51.634;7.112;2022-11-18T08:20:44;10.93;;;5.50;;
313;SDS011;143;51.634;7.112;2022-11-18T08:23:14;20.23;;;5.30;;
313;SDS011;143;51.634;7.112;2022-11-18T08:25:40;15.73;;;5.40;;
313;SDS011;143;51.634;7.112;2022-11-18T08:28:07;9.03;;;5.43;;
313;SDS011;143;51.634;7.112;2022-11-18T08:30:34;17.00;;;5.07;;
313;SDS011;143;51.634;7.112;2022-11-18T08:33:00;10.30;;;5.30;;
313;SDS011;143;51.634;7.112;2022-11-18T08:35:27;6.80;;;4.20;;
313;SDS011;143;51.634;7.112;2022-11-18T08:37:54;13.20;;;4.30;;
313;SDS011;143;51.634;7.112;2022-11-18T08:40:19;9.10;;;4.50;;
313;SDS011;143;51.634;7.112;2022-11-18T08:42:45;10.90;;;4.53;;
313;SDS011;143;51.634;7.112;2022-11-18T08:45:11;8.73;;;5.80;;
313;SDS011;143;51.634;7.112;2022-11-18T08:47:37;10.37;;;5.23;;
313;SDS011;143;51.634;7.112;2022-11-18T08:50:03;9.53;;;4.10;;
313;SDS011;143;51.634;7.112;2022-11-18T08:52:30;10.77;;;5.43;;
313;SDS011;143;51.634;7.112;2022-11-18T08:54:56;11.93;;;4.97;;
313;SDS011;143;51.634;7.112;2022-11-18T08:57:22;9.50;;;4.90;;
313;SDS011;143;51.634;7.112;2022-11-18T08:59:48;12.50;;;5.67;;
313;SDS011;143;51.634;7.112;2022-11-18T09:02:14;9.30;;;5.20;;
313;SDS011;143;51.634;7.112;2022-11-18T09:04:41;10.83;;;5.50;;
313;SDS011;143;51.634;7.112;2022-11-18T09:07:06;13.70;;;6.10;;
313;SDS011;143;51.634;7.112;2022-11-18T09:09:33;15.50;;;5.40;;
313;SDS011;143;51.634;7.112;2022-11-18T09:12:00;12.83;;;5.97;;
313;SDS011;143;51.634;7.112;2022-11-18T09:14:27;19.70;;;5.50;;
313;SDS011;143;51.634;7.112;2022-11-18T09:16:53;18.03;;;6.07;;
313;SDS011;143;51.634;7.112;2022-11-18T09:19:19;12.73;;;5.87;;
313;SDS011;143;51.634;7.112;2022-11-18T09:21:45;11.87;;;5.70;;
313;SDS011;143;51.634;7.112;2022-11-18T09:24:11;17.60;;;5.80;;
313;SDS011;143;51.634;7.112;2022-11-18T09:26:37;18.10;;;6.70;;
313;SDS011;143;51.634;7.112;2022-11-18T09:29:04;14.57;;;5.97;;
313;SDS011;143;51.634;7.112;2022-11-18T09:31:29;9.90;;;5.20;;
313;SDS011;143;51.634;7.112;2022-11-18T09:33:57;16.40;;;5.03;;
313;SDS011;143;51.634;7.112;2022-11-18T09:36:24;8.60;;;4.70;;
313;SDS011;143;51.634;7.112;2022-11-18T09:38:51;12.97;;;5.50;;
313;SDS011;143;51.634;7.112;2022-11-18T09:47:28;12.27;;;4.87;;
313;SDS011;143;51.634;7.112;2022-11-18T09:49:56;14.60;;;6.27;;
313;SDS011;143;51.634;7.112;2022-11-18T09:55:17;15.43;;;6.00;;
313;SDS011;143;51.634;7.112;2022-11-18T09:57:48;11.07;;;5.27;;
313;SDS011;143;51.634;7.112;2022-11-18T10:00:17;15.27;;;6.83;;
313;SDS011;143;51.634;7.112;2022-11-18T10:03:03;8.17;;;5.07;;
313;SDS011;143;51.634;7.112;2022-11-18T10:08:35;16.10;;;6.50;;
313;SDS011;143;51.634;7.112;2022-11-18T10:14:18;14.40;;;7.10;;
313;SDS011;143;51.634;7.112;2022-11-18T10:20:02;20.07;;;8.60;;
313;SDS011;143;51.634;7.112;2022-11-18T10:25:20;20.00;;;8.47;;
313;SDS011;143;51.634;7.112;2022-11-18T10:27:47;20.00;;;8.77;;
313;SDS011;143;51.634;7.112;2022-11-18T10:30:16;17.93;;;9.80;;
313;SDS011;143;51.634;7.112;2022-11-18T10:32:57;19.87;;;8.17;;
313;SDS011;143;51.634;7.112;2022-11-18T10:35:27;18.43;;;9.00;;
313;SDS011;143;51.634;7.112;2022-11-18T10:38:02;15.60;;;9.40;;
313;SDS011;143;51.634;7.112;2022-11-18T10:40:32;21.10;;;11.17;;
313;SDS011;143;51.634;7.112;2022-11-18T10:43:08;26.97;;;11.93;;
313;SDS011;143;51.634;7.112;2022-11-18T10:45:35;25.47;;;11.40;;
313;SDS011;143;51.634;7.112;2022-11-18T10:48:05;26.90;;;13.33;;
313;SDS011;143;51.634;7.112;2022-11-18T10:50:40;20.43;;;10.67;;
313;SDS011;143;51.634;7.112;2022-11-18T10:53:27;29.63;;;12.03;;
313;SDS011;143;51.634;7.112;2022-11-18T10:56:07;21.50;;;8.33;;
313;SDS011;143;51.634;7.112;2022-11-18T10:58:35;15.47;;;8.47;;
313;SDS011;143;51.634;7.112;2022-11-18T11:01:06;15.90;;;7.80;;
313;SDS011;143;51.634;7.112;2022-11-18T11:06:30;15.53;;;7.80;;
313;SDS011;143;51.634;7.112;2022-11-18T11:09:02;12.97;;;7.37;;
313;SDS011;143;51.634;7.112;2022-11-18T11:12:22;25.67;;;7.73;;
313;SDS011;143;51.634;7.112;2022-11-18T11:14:52;14.33;;;7.43;;
313;SDS011;143;51.634;7.112;2022-11-18T11:17:32;14.03;;;8.17;;
313;SDS011;143;51.634;7.112;2022-11-18T11:20:37;12.73;;;6.00;;
313;SDS011;143;51.634;7.112;2022-11-18T11:23:10;19.60;;;6.30;;
313;SDS011;143;51.634;7.112;2022-11-18T11:25:49;11.90;;;5.67;;
313;SDS011;143;51.634;7.112;2022-11-18T11:31:20;12.73;;;6.30;;
313;SDS011;143;51.634;7.112;2022-11-18T11:36:50;15.60;;;6.20;;
313;SDS011;143;51.634;7.112;2022-11-18T11:44:45;22.00;;;10.10;;
313;SDS011;143;51.634;7.112;2022-11-18T11:50:31;16.20;;;7.07;;
313;SDS011;143;51.634;7.112;2022-11-18T11:56:08;15.07;;;5.77;;
313;SDS011;143;51.634;7.112;2022-11-18T12:04:03;12.97;;;4.63;;
313;SDS011;143;51.634;7.112;2022-11-18T12:06:48;19.47;;;7.10;;
313;SDS011;143;51.634;7.112;2022-11-18T12:09:20;30.13;;;10.07;;
313;SDS011;143;51.634;7.112;2022-11-18T12:14:54;25.17;;;10.87;;
313;SDS011;143;51.634;7.112;2022-11-18T12:17:26;20.30;;;7.20;;
313;SDS011;143;51.634;7.112;2022-11-18T12:19:58;15.27;;;6.00;;
313;SDS011;143;51.634;7.112;2022-11-18T12:22:44;11.33;;;5.47;;
313;SDS011;143;51.634;7.112;2022-11-18T12:28:10;14.43;;;4.77;;
313;SDS011;143;51.634;7.112;2022-11-18T12:31:25;12.00;;;5.10;;
313;SDS011;143;51.634;7.112;2022-11-18T12:36:09;27.07;;;8.20;;
313;SDS011;143;51.634;7.112;2022-11-18T12:38:48;16.13;;;8.10;;
313;SDS011;143;51.634;7.112;2022-11-18T12:44:24;17.10;;;8.27;;
313;SDS011;143;51.634;7.112;2022-11-18T12:46:52;19.70;;;8.67;;
313;SDS011;143;51.634;7.112;2022-11-18T12:54:29;21.83;;;9.37;;
313;SDS011;143;51.634;7.112;2022-11-18T12:57:14;12.00;;;6.70;;
313;SDS011;143;51.634;7.112;2022-11-18T12:59:47;11.87;;;7.20;;
313;SDS011;143;51.634;7.112;2022-11-18T13:02:21;13.70;;;6.50;;
313;SDS011;143;51.634;7.112;2022-11-18T13:05:10;20.83;;;10.80;;
313;SDS011;143;51.634;7.112;2022-11-18T13:07:44;18.70;;;7.50;;
313;SDS011;143;51.634;7.112;2022-11-18T13:10:34;16.20;;;7.20;;
313;SDS011;143;51.634;7.112;2022-11-18T13:13:03;18.57;;;8.50;;
313;SDS011;143;51.634;7.112;2022-11-18T13:15:29;17.23;;;7.70;;
313;SDS011;143;51.634;7.112;2022-11-18T13:20:40;14.70;;;8.60;;
313;SDS011;143;51.634;7.112;2022-11-18T13:26:26;20.70;;;10.23;;
313;SDS011;143;51.634;7.112;2022-11-18T13:31:28;25.63;;;10.53;;
313;SDS011;143;51.634;7.112;2022-11-18T13:34:07;27.00;;;9.50;;
313;SDS011;143;51.634;7.112;2022-11-18T13:36:50;18.03;;;7.23;;
313;SDS011;143;51.634;7.112;2022-11-18T13:39:24;16.57;;;6.30;;
313;SDS011;143;51.634;7.112;2022-11-18T13:42:04;17.07;;;7.37;;
313;SDS011;143;51.634;7.112;2022-11-18T13:44:32;13.10;;;6.77;;
313;SDS011;143;51.634;7.112;2022-11-18T13:47:05;15.77;;;6.87;;
313;SDS011;143;51.634;7.112;2022-11-18T13:49:56;11.40;;;6.83;;
313;SDS011;143;51.634;7.112;2022-11-18T13:55:42;16.27;;;7.40;;
313;SDS011;143;51.634;7.112;2022-11-18T14:00:43;12.60;;;6.00;;
313;SDS011;143;51.634;7.112;2022-11-18T14:03:34;16.07;;;7.37;;
313;SDS011;143;51.634;7.112;2022-11-18T14:06:23;18.97;;;7.80;;
313;SDS011;143;51.634;7.112;2022-11-18T14:09:04;14.97;;;6.80;;
313;SDS011;143;51.634;7.112;2022-11-18T14:11:38;14.60;;;6.47;;
313;SDS011;143;51.634;7.112;2022-11-18T14:14:11;13.70;;;6.80;;
313;SDS011;143;51.634;7.112;2022-11-18T14:16:54;16.37;;;6.60;;
313;SDS011;143;51.634;7.112;2022-11-18T14:19:57;19.20;;;6.07;;
313;SDS011;143;51.634;7.112;2022-11-18T14:22:27;15.30;;;6.87;;
313;SDS011;143;51.634;7.112;2022-11-18T14:24:58;10.90;;;6.60;;
313;SDS011;143;51.634;7.112;2022-11-18T14:33:02;11.67;;;5.60;;
313;SDS011;143;51.634;7.112;2022-11-18T14:35:35;16.23;;;7.47;;
313;SDS011;143;51.634;7.112;2022-11-18T14:38:08;10.10;;;6.00;;
313;SDS011;143;51.634;7.112;2022-11-18T14:40:37;15.77;;;7.13;;
313;SDS011;143;51.634;7.112;2022-11-18T14:43:03;16.50;;;7.13;;
313;SDS011;143;51.634;7.112;2022-11-18T14:45:29;14.80;;;6.53;;
313;SDS011;143;51.634;7.112;2022-11-18T14:47:54;19.30;;;6.60;;
313;SDS011;143;51.634;7.112;2022-11-18T14:50:20;13.80;;;7.33;;
313;SDS011;143;51.634;7.112;2022-11-18T14:52:46;15.07;;;6.63;;
313;SDS011;143;51.634;7.112;2022-11-18T14:55:12;16.83;;;6.40;;
313;SDS011;143;51.634;7.112;2022-11-18T14:57:38;21.47;;;6.73;;
313;SDS011;143;51.634;7.112;2022-11-18T15:00:04;10.20;;;6.00;;
313;SDS011;143;51.634;7.112;2022-11-18T15:02:30;13.20;;;5.53;;
313;SDS011;143;51.634;7.112;2022-11-18T15:04:55;11.10;;;5.60;;
313;SDS011;143;51.634;7.112;2022-11-18T15:07:21;14.77;;;6.20;;
313;SDS011;143;51.634;7.112;2022-11-18T15:09:47;15.47;;;5.20;;
313;SDS011;143;51.634;7.112;2022-11-18T15:12:12;12.53;;;6.50;;
313;SDS011;143;51.634;7.112;2022-11-18T15:14:38;19.03;;;5.50;;
313;SDS011;143;51.634;7.112;2022-11-18T15:17:04;17.40;;;7.10;;
313;SDS011;143;51.634;7.112;2022-11-18T15:19:30;15.93;;;5.97;;
313;SDS011;143;51.634;7.112;2022-11-18T15:21:55;16.50;;;6.10;;
313;SDS011;143;51.634;7.112;2022-11-18T15:24:21;13.00;;;6.53;;
313;SDS011;143;51.634;7.112;2022-11-18T15:26:47;15.90;;;7.20;;
313;SDS011;143;51.634;7.112;2022-11-18T15:29:20;16.73;;;6.60;;
313;SDS011;143;51.634;7.112;2022-11-18T15:31:47;16.03;;;6.63;;
313;SDS011;143;51.634;7.112;2022-11-18T15:34:13;19.07;;;6.23;;
313;SDS011;143;51.634;7.112;2022-11-18T15:36:40;16.20;;;6.50;;
313;SDS011;143;51.634;7.112;2022-11-18T15:39:07;19.73;;;6.90;;
313;SDS011;143;51.634;7.112;2022-11-18T15:41:35;22.57;;;6.30;;
313;SDS011;143;51.634;7.112;2022-11-18T15:44:02;14.50;;;5.40;;
313;SDS011;143;51.634;7.112;2022-11-18T15:46:28;21.53;;;8.80;;
313;SDS011;143;51.634;7.112;2022-11-18T15:48:56;57.67;;;21.83;;
313;SDS011;143;51.634;7.112;2022-11-18T15:51:24;25.97;;;13.17;;
313;SDS011;143;51.634;7.112;2022-11-18T15:53:50;19.50;;;10.33;;
313;SDS011;143;51.634;7.112;2022-11-18T15:58:55;26.40;;;13.00;;
313;SDS011;143;51.634;7.112;2022-11-18T16:01:25;25.97;;;14.50;;
313;SDS011;143;51.634;7.112;2022-11-18T16:03:53;27.73;;;15.90;;
313;SDS011;143;51.634;7.112;2022-11-18T16:06:19;32.17;;;17.87;;
313;SDS011;143;51.634;7.112;2022-11-18T16:08:46;31.90;;;18.20;;
313;SDS011;143;51.634;7.112;2022-11-18T16:11:14;36.60;;;21.30;;
313;SDS011;143;51.634;7.112;2022-11-18T16:14:00;36.20;;;21.90;;
313;SDS011;143;51.634;7.112;2022-11-18T16:16:30;41.37;;;22.80;;
313;SDS011;143;51.634;7.112;2022-11-18T16:18:58;42.33;;;23.53;;
313;SDS011;143;51.634;7.112;2022-11-18T16:21:25;46.43;;;24.97;;
313;SDS011;143;51.634;7.112;2022-11-18T16:23:55;44.03;;;23.50;;
313;SDS011;143;51.634;7.112;2022-11-18T16:26:22;46.47;;;24.50;;
313;SDS011;143;51.634;7.112;2022-11-18T16:28:49;36.90;;;21.80;;
313;SDS011;143;51.634;7.112;2022-11-18T16:31:15;37.70;;;20.00;;
313;SDS011;143;51.634;7.112;2022-11-18T16:34:03;37.47;;;21.07;;
313;SDS011;143;51.634;7.112;2022-11-18T16:36:30;36.77;;;21.23;;
313;SDS011;143;51.634;7.112;2022-11-18T16:38:56;39.23;;;21.07;;
313;SDS011;143;51.634;7.112;2022-11-18T16:41:22;33.50;;;20.20;;
313;SDS011;143;51.634;7.112;2022-11-18T16:44:00;30.07;;;17.60;;
313;SDS011;143;51.634;7.112;2022-11-18T16:46:30;26.77;;;16.33;;
313;SDS011;143;51.634;7.112;2022-11-18T16:48:58;30.47;;;16.67;;
313;SDS011;143;51.634;7.112;2022-11-18T16:51:24;22.17;;;13.37;;
313;SDS011;143;51.634;7.112;2022-11-18T16:53:52;21.97;;;13.40;;
313;SDS011;143;51.634;7.112;2022-11-18T16:56:22;19.57;;;12.27;;
313;SDS011;143;51.634;7.112;2022-11-18T16:58:49;21.33;;;11.57;;
313;SDS011;143;51.634;7.112;2022-11-18T17:01:21;18.37;;;10.83;;
313;SDS011;143;51.634;7.112;2022-11-18T17:03:51;19.30;;;11.80;;
313;SDS011;143;51.634;7.112;2022-11-18T17:06:19;20.63;;;12.40;;
313;SDS011;143;51.634;7.112;2022-11-18T17:08:45;20.37;;;12.00;;
313;SDS011;143;51.634;7.112;2022-11-18T17:11:13;25.30;;;12.20;;
313;SDS011;143;51.634;7.112;2022-11-18T17:13:39;19.20;;;11.97;;
313;SDS011;143;51.634;7.112;2022-11-18T17:16:07;21.10;;;12.63;;
313;SDS011;143;51.634;7.112;2022-11-18T17:18:34;18.00;;;10.57;;
313;SDS011;143;51.634;7.112;2022-11-18T17:21:11;24.00;;;12.77;;
313;SDS011;143;51.634;7.112;2022-11-18T17:23:38;20.27;;;11.70;;
313;SDS011;143;51.634;7.112;2022-11-18T17:26:05;21.40;;;12.37;;
313;SDS011;143;51.634;7.112;2022-11-18T17:28:32;18.50;;;11.57;;
313;SDS011;143;51.634;7.112;2022-11-18T17:31:06;24.13;;;11.43;;
313;SDS011;143;51.634;7.112;2022-11-18T17:33:33;20.63;;;12.13;;
313;SDS011;143;51.634;7.112;2022-11-18T17:36:00;23.33;;;11.10;;
313;SDS011;143;51.634;7.112;2022-11-18T17:38:27;21.70;;;10.83;;
313;SDS011;143;51.634;7.112;2022-11-18T17:40:57;22.13;;;10.73;;
313;SDS011;143;51.634;7.112;2022-11-18T17:43:23;17.03;;;9.83;;
313;SDS011;143;51.634;7.112;2022-11-18T17:45:50;20.80;;;10.60;;